Terminal Aerodrome Forecast
Issued by NWS

Current Version | Previous Version | Text Only | Print | Product List | Glossary On
Versions: 1 2 3 4 5 6 7 8 9 10 11 12 13 14 15 16 17 18 19 20 21 22 23 24 25 26 27 28 29 30 31 32 33 34 35 36 37 38 39 40 41 42 43 44 45
436
FTUS42 KRAH 222108 AAA
TAFRWI
TAF AMD
KRWI 222108Z 2221/2318 23011G19KT P6SM VCSH SCT060 BKN080
      TEMPO 2221/2301 VRB20G35KT 3SM TSRA SCT025 BKN060CB OVC100
     FM230200 03012G20KT 6SM -SHRA BKN015 BKN080
     FM231200 04012G20KT 3SM -SHRA BKN008 OVC020=

USA.gov is the U.S. government's official web portal to all federal, state and local government web resources and services.